Time;durP1;ratioP1;P1;durP2;ratioP2;P2;SDS_P1;SDS_P2;PMS_P1;PMS_P2;Temp;Humidity;BMP_temperature;BMP_pressure;BME280_temperature;BME280_humidity;BME280_pressure;Samples;Min_cycle;Max_cycle;Signal;HPM_P1;HPM_P2
2021/01/03 00:02:09;;;;;;;50.78;22.42;;;;;;;-0.29;95.02;101136.37;1750101;81;21210;-67
2021/01/03 00:04:39;;;;;;;47.83;26.05;;;;;;;-0.29;95.00;101135.94;1750725;81;21127;-67
2021/01/03 00:07:07;;;;;;;41.80;20.57;;;;;;;-0.32;94.87;101130.70;1751117;81;21147;-67
2021/01/03 00:09:34;;;;;;;292.10;91.82;;;;;;;-0.34;94.76;101136.69;1746115;81;21819;-67
2021/01/03 00:12:03;;;;;;;150.65;50.45;;;;;;;-0.35;94.74;101128.02;1770827;80;21194;-66
2021/01/03 00:14:31;;;;;;;142.03;52.40;;;;;;;-0.35;94.62;101131.91;1783687;80;21606;-66
2021/01/03 00:17:02;;;;;;;285.17;98.60;;;;;;;-0.36;94.59;101141.82;1783484;80;21662;-67
2021/01/03 00:19:30;;;;;;;158.12;59.27;;;;;;;-0.39;94.62;101133.99;1783538;80;21585;-67
2021/01/03 00:21:58;;;;;;;74.35;34.53;;;;;;;-0.41;94.69;101140.84;1783534;79;22335;-65
2021/01/03 00:24:27;;;;;;;135.45;48.05;;;;;;;-0.40;94.65;101136.11;1783522;80;21178;-67
2021/01/03 00:26:55;;;;;;;118.80;46.70;;;;;;;-0.39;94.53;101145.64;1783406;80;21614;-65
2021/01/03 00:29:22;;;;;;;148.75;52.78;;;;;;;-0.42;94.51;101141.66;1783535;80;21154;-66
2021/01/03 00:31:50;;;;;;;93.90;37.10;;;;;;;-0.44;94.45;101142.04;1783428;79;21170;-66
2021/01/03 00:34:19;;;;;;;80.97;34.03;;;;;;;-0.45;94.67;101142.89;1783520;80;21424;-66
2021/01/03 00:36:47;;;;;;;57.58;26.75;;;;;;;-0.42;94.74;101142.95;1783713;80;21557;-67
2021/01/03 00:39:14;;;;;;;42.50;19.92;;;;;;;-0.43;94.85;101149.85;1783491;79;21704;-65
2021/01/03 00:41:47;;;;;;;38.85;19.50;;;;;;;-0.44;94.78;101145.92;1783646;80;21550;-68
2021/01/03 00:44:17;;;;;;;93.87;42.50;;;;;;;-0.46;94.75;101151.08;1754240;80;21574;-66
2021/01/03 00:46:45;;;;;;;46.50;22.13;;;;;;;-0.48;94.76;101146.28;1783460;79;22332;-66
2021/01/03 00:49:13;;;;;;;37.42;16.97;;;;;;;-0.50;94.58;101141.91;1783501;79;21590;-65
2021/01/03 00:51:40;;;;;;;39.50;19.90;;;;;;;-0.52;94.45;101141.00;1783786;80;21593;-66
2021/01/03 00:54:08;;;;;;;64.75;31.65;;;;;;;-0.53;94.53;101135.34;1783379;79;21158;-66
2021/01/03 00:56:36;;;;;;;78.00;36.25;;;;;;;-0.53;94.70;101141.82;1783666;80;21559;-66
2021/01/03 00:59:04;;;;;;;372.23;90.80;;;;;;;-0.53;94.73;101131.08;1783525;80;21619;-66
2021/01/03 01:01:31;;;;;;;239.35;61.48;;;;;;;-0.53;94.87;101132.77;1783187;80;21174;-66
2021/01/03 01:03:59;;;;;;;159.32;47.40;;;;;;;-0.51;94.91;101128.08;1783680;80;21151;-66
2021/01/03 01:06:27;;;;;;;81.97;32.35;;;;;;;-0.50;94.95;101123.80;1783549;80;21127;-68
2021/01/03 01:08:54;;;;;;;87.65;33.45;;;;;;;-0.47;95.08;101129.04;1783494;80;21099;-68
2021/01/03 01:11:24;;;;;;;69.70;25.95;;;;;;;-0.48;95.22;101124.29;1783477;80;21602;-66
2021/01/03 01:13:52;;;;;;;58.43;27.80;;;;;;;-0.48;95.37;101125.58;1783654;80;21186;-65
2021/01/03 01:16:20;;;;;;;61.37;24.40;;;;;;;-0.46;95.36;101126.89;1771116;80;21426;-67
2021/01/03 01:18:47;;;;;;;121.35;40.15;;;;;;;-0.44;95.36;101119.65;1752540;80;21904;-66
2021/01/03 01:21:15;;;;;;;132.25;40.70;;;;;;;-0.41;95.40;101125.31;1752477;81;21536;-66
2021/01/03 01:23:42;;;;;;;110.28;35.15;;;;;;;-0.43;95.38;101129.58;1722790;81;21174;-66
2021/01/03 01:26:10;;;;;;;47.45;22.50;;;;;;;-0.43;95.34;101133.45;1752285;81;21662;-67
2021/01/03 01:28:38;;;;;;;62.58;25.80;;;;;;;-0.44;95.36;101125.22;1752519;81;21635;-67
2021/01/03 01:31:06;;;;;;;94.45;37.40;;;;;;;-0.45;95.30;101127.37;1752395;80;21172;-66
2021/01/03 01:33:33;;;;;;;142.85;64.45;;;;;;;-0.46;95.21;101121.72;1752489;81;21184;-66
2021/01/03 01:36:01;;;;;;;57.38;26.55;;;;;;;-0.48;95.26;101126.02;1752501;81;21258;-66
2021/01/03 01:38:29;;;;;;;80.12;44.23;;;;;;;-0.50;95.19;101125.09;1752402;80;21176;-66
2021/01/03 01:40:57;;;;;;;71.45;38.60;;;;;;;-0.54;95.17;101126.72;1752660;81;21604;-66
2021/01/03 01:43:25;;;;;;;47.78;22.87;;;;;;;-0.53;95.21;101127.59;1752492;81;21175;-66
2021/01/03 01:45:55;;;;;;;68.95;34.25;;;;;;;-0.54;95.39;101128.44;1752548;81;21125;-66
2021/01/03 01:48:38;;;;;;;108.10;71.33;;;;;;;-0.54;95.43;101127.14;1764222;80;21370;-66
2021/01/03 01:51:11;;;;;;;50.75;27.45;;;;;;;-0.56;95.46;101122.35;1769003;81;21602;-67
2021/01/03 01:54:08;;;;;;;47.45;22.95;;;;;;;-0.55;95.61;101129.26;1768556;81;21701;-67
2021/01/03 01:56:50;;;;;;;37.20;19.80;;;;;;;-0.52;95.63;101122.89;1768286;81;21190;-66
2021/01/03 01:59:48;;;;;;;61.23;27.90;;;;;;;-0.52;95.66;101121.59;1768891;79;21186;-67
2021/01/03 02:02:26;;;;;;;46.92;22.80;;;;;;;-0.53;95.73;101119.83;1769144;81;21390;-66
2021/01/03 02:05:01;;;;;;;50.33;24.00;;;;;;;-0.54;95.82;101124.56;1766055;81;21175;-67
2021/01/03 02:07:46;;;;;;;47.15;23.62;;;;;;;-0.54;95.68;101118.09;1769220;81;21220;-66
2021/01/03 02:10:31;;;;;;;33.92;18.32;;;;;;;-0.54;95.51;101116.80;1769214;81;21183;-67
2021/01/03 02:13:14;;;;;;;38.90;18.95;;;;;;;-0.55;95.69;101122.40;1769302;81;21186;-68
2021/01/03 02:15:42;;;;;;;57.88;25.95;;;;;;;-0.55;95.80;101125.37;1773224;79;23511;-66
2021/01/03 02:18:11;;;;;;;49.33;22.50;;;;;;;-0.54;95.82;101128.44;1764045;81;21158;-65
2021/01/03 02:20:54;;;;;;;42.58;21.30;;;;;;;-0.53;95.72;101132.37;1733922;82;21783;-67
2021/01/03 02:23:45;;;;;;;45.35;21.60;;;;;;;-0.55;95.65;101131.84;1785572;80;21131;-67
2021/01/03 02:26:18;;;;;;;35.25;19.05;;;;;;;-0.58;95.75;101135.23;1758990;80;21194;-68
2021/01/03 02:28:47;;;;;;;33.18;17.45;;;;;;;-0.60;95.65;101128.28;1785686;80;21364;-67
2021/01/03 02:31:19;;;;;;;32.90;16.90;;;;;;;-0.65;95.42;101128.17;1785280;80;21179;-67
2021/01/03 02:33:48;;;;;;;38.90;20.37;;;;;;;-0.67;95.27;101132.42;1764154;81;21159;-66
2021/01/03 02:36:24;;;;;;;35.08;19.12;;;;;;;-0.73;95.22;101135.75;1785563;80;21606;-66
2021/01/03 02:39:31;;;;;;;39.25;20.23;;;;;;;-0.77;95.23;101138.22;1764376;81;21645;-66
2021/01/03 02:42:04;;;;;;;44.80;22.82;;;;;;;-0.79;95.27;101133.42;1785765;80;22374;-66
2021/01/03 02:44:31;;;;;;;35.63;17.95;;;;;;;-0.80;95.25;101129.97;1763077;81;21233;-67
2021/01/03 02:46:59;;;;;;;48.75;23.98;;;;;;;-0.82;95.38;101135.52;1764153;81;21190;-67
2021/01/03 02:49:27;;;;;;;40.05;20.57;;;;;;;-0.82;95.50;101131.64;1764127;81;22175;-67
2021/01/03 02:51:54;;;;;;;46.02;21.93;;;;;;;-0.84;95.61;101128.14;1785436;80;21610;-68
2021/01/03 02:54:22;;;;;;;39.50;20.20;;;;;;;-0.82;95.87;101137.23;1736825;80;22644;-68
2021/01/03 02:56:50;;;;;;;47.10;22.48;;;;;;;-0.83;96.17;101132.45;1785504;80;21178;-67
2021/01/03 02:59:17;;;;;;;49.15;23.27;;;;;;;-0.82;96.50;101130.34;1764094;81;21220;-68
2021/01/03 03:01:45;;;;;;;49.38;24.25;;;;;;;-0.79;96.76;101133.00;1762252;81;21127;-68
2021/01/03 03:04:12;;;;;;;45.92;23.10;;;;;;;-0.77;96.85;101139.09;1762240;81;21167;-67
2021/01/03 03:06:40;;;;;;;40.08;20.27;;;;;;;-0.75;96.88;101140.43;1762249;81;21649;-66
2021/01/03 03:09:08;;;;;;;56.48;23.80;;;;;;;-0.72;96.89;101137.48;1733741;82;21212;-67
2021/01/03 03:11:36;;;;;;;48.60;24.87;;;;;;;-0.69;96.98;101136.69;1785445;80;21148;-66
2021/01/03 03:14:04;;;;;;;51.40;22.60;;;;;;;-0.70;97.08;101133.23;1764189;81;21182;-67
2021/01/03 03:16:31;;;;;;;54.35;24.72;;;;;;;-0.68;97.12;101131.56;1786277;80;21195;-67
2021/01/03 03:18:59;;;;;;;44.23;22.82;;;;;;;-0.67;97.23;101129.45;1787381;80;21824;-67
2021/01/03 03:21:27;;;;;;;54.60;25.68;;;;;;;-0.62;97.22;101132.54;1787282;80;22227;-66
2021/01/03 03:23:54;;;;;;;58.83;26.95;;;;;;;-0.63;97.27;101134.26;1787408;80;21673;-69
2021/01/03 03:26:22;;;;;;;54.70;23.95;;;;;;;-0.60;97.27;101138.63;1787125;78;21413;-67
2021/01/03 03:28:50;;;;;;;55.73;25.10;;;;;;;-0.61;97.29;101135.59;1787252;78;21178;-67
2021/01/03 03:31:18;;;;;;;61.85;26.97;;;;;;;-0.62;97.45;101137.32;1787167;80;21372;-67
2021/01/03 03:33:46;;;;;;;58.02;26.75;;;;;;;-0.62;97.46;101135.13;1787172;80;21161;-67
2021/01/03 03:36:15;;;;;;;61.13;28.83;;;;;;;-0.61;97.53;101142.07;1787071;78;21162;-68
2021/01/03 03:38:42;;;;;;;57.25;26.77;;;;;;;-0.58;97.55;101136.95;1739002;80;21598;-68
2021/01/03 03:41:24;;;;;;;50.28;23.70;;;;;;;-0.57;97.65;101146.48;1787040;80;21206;-67
2021/01/03 03:46:37;;;;;;;47.93;23.43;;;;;;;-0.49;97.76;101140.64;1842585;77;24276;-71
2021/01/03 03:49:05;;;;;;;56.55;25.75;;;;;;;-0.50;97.70;101147.09;1789649;80;21135;-69
2021/01/03 03:51:33;;;;;;;60.67;25.68;;;;;;;-0.48;97.81;101137.66;1789665;80;22285;-67
2021/01/03 03:54:01;;;;;;;51.68;22.20;;;;;;;-0.44;97.74;101135.57;1789616;80;21158;-67
2021/01/03 03:56:28;;;;;;;59.13;27.27;;;;;;;-0.46;97.83;101134.66;1789593;80;21154;-67
2021/01/03 03:58:56;;;;;;;52.43;24.92;;;;;;;-0.42;97.84;101136.48;1789595;80;21644;-66
2021/01/03 04:01:24;;;;;;;52.00;24.15;;;;;;;-0.41;97.82;101140.84;1789556;80;21217;-67
2021/01/03 04:03:51;;;;;;;54.77;24.60;;;;;;;-0.41;97.87;101142.14;1789646;80;21681;-67
2021/01/03 04:06:26;;;;;;;58.78;24.35;;;;;;;-0.46;97.99;101132.06;1789558;80;21774;-66
2021/01/03 04:08:54;;;;;;;65.60;29.77;;;;;;;-0.40;98.05;101147.75;1789634;80;22294;-66
2021/01/03 04:11:21;;;;;;;62.83;27.58;;;;;;;-0.39;98.01;101150.81;1789462;80;21165;-66
2021/01/03 04:13:49;;;;;;;48.30;23.32;;;;;;;-0.38;98.06;101157.73;1789605;79;21590;-66
2021/01/03 04:16:16;;;;;;;51.53;24.47;;;;;;;-0.38;98.06;101149.96;1777876;80;21270;-65
2021/01/03 04:18:45;;;;;;;54.73;25.08;;;;;;;-0.35;98.15;101152.61;1758165;80;21230;-66
2021/01/03 04:21:13;;;;;;;62.53;28.17;;;;;;;-0.33;98.10;101154.82;1758280;81;21653;-65
2021/01/03 04:23:41;;;;;;;53.35;25.02;;;;;;;-0.29;98.03;101156.66;1758254;81;21271;-67
2021/01/03 04:26:20;;;;;;;53.68;24.52;;;;;;;-0.28;98.06;101158.38;1758423;81;21583;-67
2021/01/03 04:28:48;;;;;;;49.75;23.40;;;;;;;-0.27;98.05;101157.56;1758380;80;21197;-66
2021/01/03 04:31:19;;;;;;;42.08;21.02;;;;;;;-0.25;97.95;101157.61;1758160;81;21198;-67
2021/01/03 04:33:47;;;;;;;45.33;22.00;;;;;;;-0.25;97.91;101164.95;1758499;81;27179;-67
2021/01/03 04:36:16;;;;;;;45.12;21.37;;;;;;;-0.28;97.93;101163.56;1758213;81;21650;-67
2021/01/03 04:38:44;;;;;;;47.90;19.25;;;;;;;-0.29;97.96;101167.00;1758320;81;21206;-68
2021/01/03 04:41:25;;;;;;;45.98;20.65;;;;;;;-0.31;97.99;101160.91;1758197;81;21337;-68
2021/01/03 04:44:01;;;;;;;60.47;25.40;;;;;;;-0.26;98.01;101161.89;1820433;78;22812;-68
2021/01/03 04:46:34;;;;;;;47.25;22.20;;;;;;;-0.33;98.11;101161.29;1760612;80;21187;-67
2021/01/03 04:49:04;;;;;;;45.30;20.90;;;;;;;-0.35;98.17;101161.67;1744155;82;21205;-67
2021/01/03 04:51:40;;;;;;;35.58;17.67;;;;;;;-0.32;98.13;101160.47;1744381;82;21208;-66
2021/01/03 04:54:16;;;;;;;37.73;20.08;;;;;;;-0.32;98.14;101160.47;1743794;80;21183;-66
2021/01/03 04:56:53;;;;;;;40.92;19.05;;;;;;;-0.37;98.31;101165.93;1762415;80;21215;-67
2021/01/03 04:59:41;;;;;;;43.98;22.13;;;;;;;-0.36;98.34;101162.95;1744070;80;21167;-67
2021/01/03 05:02:27;;;;;;;43.20;22.62;;;;;;;-0.36;98.40;101169.42;1744088;82;21370;-67
2021/01/03 05:05:29;;;;;;;40.25;21.12;;;;;;;-0.35;98.36;101169.86;1744005;82;21697;-68
2021/01/03 05:08:23;;;;;;;40.05;20.32;;;;;;;-0.39;98.53;101177.98;1744189;82;21620;-67
2021/01/03 05:10:52;;;;;;;38.42;17.57;;;;;;;-0.43;98.47;101164.09;1744352;82;21186;-67
2021/01/03 05:13:50;;;;;;;29.70;14.80;;;;;;;-0.45;98.49;101163.59;1744045;80;21629;-67
2021/01/03 05:16:18;;;;;;;35.25;17.62;;;;;;;-0.46;98.49;101164.41;1748525;80;21336;-67
2021/01/03 05:18:45;;;;;;;31.50;15.78;;;;;;;-0.49;98.70;101176.00;1755608;81;21754;-66
2021/01/03 05:21:13;;;;;;;35.00;17.87;;;;;;;-0.53;98.74;101185.41;1755706;81;21559;-67
2021/01/03 05:24:03;;;;;;;37.45;18.12;;;;;;;-0.51;98.81;101178.96;1755635;81;21607;-66
2021/01/03 05:26:35;;;;;;;41.77;19.23;;;;;;;-0.49;98.74;101173.41;1755733;81;21143;-66
2021/01/03 05:29:05;;;;;;;45.58;20.23;;;;;;;-0.46;98.74;101182.14;1755440;81;21387;-67
2021/01/03 05:31:33;;;;;;;47.73;19.80;;;;;;;-0.45;98.74;101175.24;1755435;81;21159;-66
2021/01/03 05:34:08;;;;;;;42.67;19.82;;;;;;;-0.46;98.77;101174.38;1755628;81;21594;-65
2021/01/03 05:36:44;;;;;;;45.10;20.25;;;;;;;-0.42;98.79;101177.89;1755568;81;21211;-65
2021/01/03 05:39:23;;;;;;;49.42;21.85;;;;;;;-0.47;98.84;101179.50;1755614;81;21616;-67
2021/01/03 05:42:08;;;;;;;52.15;20.02;;;;;;;-0.45;98.92;101183.00;1755519;81;23590;-67
2021/01/03 05:44:38;;;;;;;46.08;19.35;;;;;;;-0.46;98.90;101185.12;1755346;81;21611;-68
2021/01/03 05:47:21;;;;;;;42.00;18.35;;;;;;;-0.47;98.91;101187.27;1724325;81;21191;-67
2021/01/03 05:50:18;;;;;;;38.92;13.53;;;;;;;-0.50;98.99;101191.08;1764824;80;21111;-68
2021/01/03 05:53:00;;;;;;;46.98;16.82;;;;;;;-0.54;99.12;101195.72;1767878;80;21191;-68
2021/01/03 05:55:29;;;;;;;42.62;17.12;;;;;;;-0.57;99.24;101194.36;1745159;80;21643;-68
2021/01/03 05:58:22;;;;;;;51.68;21.45;;;;;;;-0.60;99.40;101199.00;1771341;80;21203;-68
2021/01/03 06:00:50;;;;;;;52.67;23.30;;;;;;;-0.60;99.47;101199.43;1743577;82;21606;-68
2021/01/03 06:03:30;;;;;;;49.65;19.23;;;;;;;-0.59;99.61;101199.48;1737595;80;25682;-68
2021/01/03 06:06:31;;;;;;;53.35;19.90;;;;;;;-0.58;99.56;101201.22;1698509;82;21170;-69
2021/01/03 06:09:00;;;;;;;44.77;19.77;;;;;;;-0.60;99.58;101202.02;1721445;82;21421;-68
2021/01/03 06:11:28;;;;;;;48.23;20.35;;;;;;;-0.59;99.62;101207.67;1732001;82;21618;-67
2021/01/03 06:13:57;;;;;;;40.50;18.87;;;;;;;-0.60;99.62;101199.43;1732118;82;21225;-68
2021/01/03 06:16:34;;;;;;;44.98;18.45;;;;;;;-0.57;99.61;101204.70;1732546;82;21213;-66
2021/01/03 06:19:29;;;;;;;40.12;18.05;;;;;;;-0.61;99.66;101202.87;1702436;82;21133;-68
2021/01/03 06:21:57;;;;;;;40.65;16.42;;;;;;;-0.60;99.72;101200.30;1729504;82;21660;-68
2021/01/03 06:24:26;;;;;;;47.78;21.10;;;;;;;-0.57;99.71;101200.83;1730816;82;21606;-67
2021/01/03 06:26:59;;;;;;;46.92;18.98;;;;;;;-0.60;99.76;101192.96;1730784;82;21186;-69
2021/01/03 06:29:38;;;;;;;47.08;17.82;;;;;;;-0.51;99.74;101202.25;1730775;82;21294;-67
2021/01/03 06:32:24;;;;;;;41.35;16.48;;;;;;;-0.52;99.80;101205.69;1730826;82;21146;-69
2021/01/03 06:35:03;;;;;;;39.20;14.58;;;;;;;-0.53;99.87;101206.51;1730856;82;21398;-67
2021/01/03 06:37:50;;;;;;;42.60;18.45;;;;;;;-0.54;99.88;101211.24;1730712;82;21570;-69
2021/01/03 06:40:36;;;;;;;38.57;16.30;;;;;;;-0.47;99.89;101203.66;1857785;75;22625;-68
2021/01/03 06:43:46;;;;;;;37.83;17.17;;;;;;;-0.51;99.88;101207.00;1825716;78;21198;-68
2021/01/03 06:46:56;;;;;;;45.05;17.98;;;;;;;-0.48;99.88;101207.10;1825611;78;22111;-68
2021/01/03 06:49:52;;;;;;;46.73;18.48;;;;;;;-0.48;99.92;101208.81;1825490;78;21209;-67
2021/01/03 06:53:05;;;;;;;39.73;17.25;;;;;;;-0.46;99.92;101209.70;1823430;78;21174;-67
2021/01/03 06:55:56;;;;;;;43.23;17.73;;;;;;;-0.44;99.91;101222.27;1825642;78;21189;-66
2021/01/03 06:59:12;;;;;;;47.20;18.45;;;;;;;-0.44;99.97;101217.09;1752287;78;21225;-67
2021/01/03 07:01:40;;;;;;;43.85;16.82;;;;;;;-0.41;100.00;101210.72;1825454;78;22791;-67
2021/01/03 07:04:26;;;;;;;43.23;17.48;;;;;;;-0.40;100.00;101211.59;1825468;78;21174;-66
2021/01/03 07:06:53;;;;;;;33.67;14.87;;;;;;;-0.38;100.00;101215.96;1825020;78;21566;-67
2021/01/03 07:09:21;;;;;;;34.35;14.18;;;;;;;-0.36;100.00;101220.77;1825419;78;21130;-67
2021/01/03 07:11:53;;;;;;;38.15;17.10;;;;;;;-0.36;100.00;101221.19;1825350;78;21590;-67
2021/01/03 07:14:32;;;;;;;30.25;14.35;;;;;;;-0.34;100.00;101221.68;1825494;78;21365;-66
2021/01/03 07:21:08;;;;;;;31.70;14.40;;;;;;;-0.28;100.00;101220.52;1752414;79;22591;-66
2021/01/03 07:23:43;;;;;;;32.05;14.73;;;;;;;-0.33;100.00;101218.66;1710790;83;21177;-66
2021/01/03 07:26:32;;;;;;;25.43;11.90;;;;;;;-0.30;100.00;101219.63;1708740;80;21226;-64
2021/01/03 07:29:07;;;;;;;32.25;14.50;;;;;;;-0.30;100.00;101219.63;1648880;85;21226;-64
2021/01/03 07:31:49;;;;;;;36.88;15.55;;;;;;;-0.27;100.00;101218.41;1652874;86;21188;-64
2021/01/03 07:34:32;;;;;;;33.03;14.00;;;;;;;-0.17;100.00;101222.08;1829102;76;23244;-64
2021/01/03 07:37:26;;;;;;;32.17;14.23;;;;;;;-0.19;100.00;101219.87;1729385;82;21646;-63
2021/01/03 07:40:05;;;;;;;30.48;14.30;;;;;;;-0.16;100.00;101220.36;1708265;82;22272;-65
2021/01/03 07:42:36;;;;;;;29.02;15.28;;;;;;;-0.14;100.00;101216.09;1729155;82;22098;-65
2021/01/03 07:45:17;;;;;;;30.60;12.55;;;;;;;-0.13;100.00;101217.86;1723710;80;21215;-64
2021/01/03 07:47:51;;;;;;;30.97;13.60;;;;;;;-0.09;99.97;101224.84;1719360;82;21562;-64
2021/01/03 07:50:34;;;;;;;64.92;25.43;;;;;;;-0.10;99.96;101211.45;1769717;78;21179;-65
2021/01/03 07:53:34;;;;;;;36.03;17.07;;;;;;;-0.06;99.99;101216.74;1776150;79;21552;-64
2021/01/03 07:56:18;;;;;;;;;;;;;;;0.02;99.94;101225.98;1758122;81;21146;-65
2021/01/03 07:58:54;;;;;;;34.88;16.00;;;;;;;0.08;99.96;101226.13;1759007;81;20302;-66
2021/01/03 08:01:26;;;;;;;28.87;12.88;;;;;;;0.12;100.00;101218.89;1758858;81;21623;-64
2021/01/03 08:03:54;;;;;;;31.50;15.53;;;;;;;0.14;99.81;101212.03;1760065;79;22144;-73
2021/01/03 08:06:21;;;;;;;36.45;17.42;;;;;;;0.18;99.71;101224.23;1767968;79;21651;-72
2021/01/03 08:08:55;;;;;;;36.93;17.00;;;;;;;0.20;99.64;101220.35;1788032;80;21170;-72
2021/01/03 08:11:38;;;;;;;44.38;20.77;;;;;;;0.26;99.68;101213.16;1786160;80;21147;-73
2021/01/03 08:14:26;;;;;;;26.17;14.10;;;;;;;0.27;99.51;101220.08;1758078;81;21218;-74
2021/01/03 08:16:59;;;;;;;32.35;15.20;;;;;;;0.28;99.37;101214.06;1777559;80;21130;-72
2021/01/03 08:19:27;;;;;;;37.48;18.57;;;;;;;0.30;99.19;101219.73;1746439;78;22274;-64
2021/01/03 08:21:58;;;;;;;26.70;13.95;;;;;;;0.30;99.22;101212.36;1706614;83;21652;-64
2021/01/03 08:24:28;;;;;;;30.85;14.23;;;;;;;0.29;99.24;101213.21;1705943;82;21603;-65
2021/01/03 08:27:02;;;;;;;21.40;10.98;;;;;;;0.33;99.16;101213.74;1722549;82;21259;-64
2021/01/03 08:29:48;;;;;;;32.25;16.50;;;;;;;0.33;99.10;101215.91;1728596;82;21188;-64
2021/01/03 08:32:22;;;;;;;28.73;15.68;;;;;;;0.34;99.06;101215.05;1705656;82;21397;-65
2021/01/03 08:34:52;;;;;;;26.62;12.58;;;;;;;0.38;98.93;101216.01;1721754;81;21219;-74
2021/01/03 08:37:30;;;;;;;30.17;15.15;;;;;;;0.33;98.75;101209.86;1755602;79;21652;-74
2021/01/03 08:39:57;;;;;;;27.37;13.25;;;;;;;0.33;98.62;101216.33;1764944;79;21195;-73
2021/01/03 08:42:36;;;;;;;25.45;12.80;;;;;;;0.36;98.67;101216.39;1731393;80;21181;-74
2021/01/03 08:45:07;;;;;;;26.17;11.90;;;;;;;0.35;98.54;101221.13;1789297;80;21198;-74
2021/01/03 08:47:39;;;;;;;31.45;15.30;;;;;;;0.31;98.29;101230.97;1788381;80;21676;-73
2021/01/03 08:50:22;;;;;;;28.57;14.60;;;;;;;0.27;98.12;101223.53;1757070;76;21239;-66
2021/01/03 08:52:59;;;;;;;29.80;15.32;;;;;;;0.27;98.08;101224.83;1678800;84;22185;-64
2021/01/03 08:55:31;;;;;;;37.83;18.00;;;;;;;0.24;97.92;101214.83;1716332;83;21149;-64
2021/01/03 08:58:02;;;;;;;31.75;16.35;;;;;;;0.25;98.13;101208.80;1708090;82;21369;-66
2021/01/03 09:00:40;;;;;;;34.30;15.50;;;;;;;0.34;98.34;101206.41;1696463;84;21155;-65
2021/01/03 09:03:22;;;;;;;36.40;17.27;;;;;;;0.42;98.16;101215.24;1708411;82;21658;-64
2021/01/03 09:05:50;;;;;;;34.08;16.52;;;;;;;0.44;97.91;101208.38;1670109;83;21650;-73
2021/01/03 09:08:37;;;;;;;26.52;10.38;;;;;;;0.46;97.70;101210.98;1680500;85;21196;-74
2021/01/03 09:11:15;;;;;;;30.00;15.45;;;;;;;0.44;97.38;101220.44;1703480;84;21467;-74
2021/01/03 09:13:49;;;;;;;31.42;16.57;;;;;;;0.37;97.15;101224.21;1746269;82;21176;-72
2021/01/03 09:16:41;;;;;;;38.95;18.42;;;;;;;0.38;97.07;101230.26;1709308;82;21221;-73
2021/01/03 09:19:23;;;;;;;46.28;22.48;;;;;;;0.33;96.85;101228.00;1740010;79;21148;-66
2021/01/03 09:21:57;;;;;;;37.30;17.85;;;;;;;0.33;96.77;101235.77;1721786;83;21178;-65
2021/01/03 09:24:32;;;;;;;38.58;17.65;;;;;;;0.32;96.90;101243.07;1723170;81;22253;-66
2021/01/03 09:27:02;;;;;;;40.67;19.27;;;;;;;0.27;96.75;101235.62;1718166;83;22156;-66
2021/01/03 09:29:37;;;;;;;39.53;19.07;;;;;;;0.28;96.85;101234.80;1720676;83;21350;-64
2021/01/03 09:32:13;;;;;;;37.25;17.17;;;;;;;0.30;96.92;101238.27;1726299;83;21585;-65
2021/01/03 09:35:10;;;;;;;29.30;12.13;;;;;;;0.32;96.82;101235.30;1728805;78;21150;-68
2021/01/03 09:37:41;;;;;;;44.80;21.50;;;;;;;0.32;96.65;101228.81;1740806;80;21382;-69
2021/01/03 09:40:29;;;;;;;32.50;16.62;;;;;;;0.34;96.67;101221.95;1668052;82;21187;-68
2021/01/03 09:43:20;;;;;;;38.20;18.00;;;;;;;0.39;96.62;101218.64;1668563;83;21212;-67
2021/01/03 09:46:10;;;;;;;46.10;21.42;;;;;;;0.43;96.68;101216.97;1683641;83;21203;-67
2021/01/03 09:48:39;;;;;;;31.42;13.50;;;;;;;0.49;96.58;101215.82;1660951;83;21671;-68
2021/01/03 09:51:18;;;;;;;32.17;15.45;;;;;;;0.52;96.45;101219.77;1654926;86;21852;-66
2021/01/03 09:53:45;;;;;;;37.58;19.85;;;;;;;0.53;96.46;101218.94;1654088;86;21280;-68
2021/01/03 09:56:32;;;;;;;31.15;16.15;;;;;;;0.51;96.25;101218.45;1654169;86;21361;-67
2021/01/03 09:59:14;;;;;;;35.03;18.63;;;;;;;0.62;96.29;101215.25;1834644;78;22786;-68
2021/01/03 10:01:43;;;;;;;41.68;20.08;;;;;;;0.57;96.07;101219.44;1779211;79;21190;-69
2021/01/03 10:04:25;;;;;;;37.70;17.37;;;;;;;0.54;96.04;101211.61;1775798;80;21567;-69
2021/01/03 10:06:56;;;;;;;34.75;16.20;;;;;;;0.58;96.12;101206.08;1775634;80;21187;-68
2021/01/03 10:09:29;;;;;;;38.42;18.95;;;;;;;0.59;96.04;101202.20;1775044;79;22137;-70
2021/01/03 10:11:57;;;;;;;42.05;20.20;;;;;;;0.60;96.10;101205.27;1771033;79;21548;-67
2021/01/03 10:14:35;;;;;;;47.23;20.68;;;;;;;0.63;96.04;101197.54;1769882;79;21216;-68
2021/01/03 10:17:20;;;;;;;60.45;27.05;;;;;;;0.67;95.91;101204.07;1772007;80;21210;-68
2021/01/03 10:19:48;;;;;;;43.87;21.97;;;;;;;0.67;95.76;101201.08;1745564;81;21229;-68
2021/01/03 10:22:35;;;;;;;47.75;22.15;;;;;;;0.69;95.87;101199.40;1719231;81;21493;-67
2021/01/03 10:25:07;;;;;;;48.28;23.07;;;;;;;0.74;95.98;101186.53;1717111;83;22171;-68
2021/01/03 10:27:35;;;;;;;64.00;26.35;;;;;;;0.85;95.91;101184.99;1719355;83;21207;-68
2021/01/03 10:30:08;;;;;;;61.75;26.02;;;;;;;0.87;95.74;101185.90;1711099;83;21215;-69
2021/01/03 10:32:37;;;;;;;57.78;24.47;;;;;;;0.91;95.81;101186.41;1731175;77;21244;-66
2021/01/03 10:35:07;;;;;;;63.05;27.42;;;;;;;0.93;95.73;101183.44;1746243;80;21205;-66
2021/01/03 10:37:34;;;;;;;47.98;21.65;;;;;;;0.99;95.57;101186.16;1754713;80;21644;-65
2021/01/03 10:40:05;;;;;;;47.45;20.92;;;;;;;0.98;95.24;101180.93;1758113;80;21189;-66
2021/01/03 10:42:33;;;;;;;59.10;24.92;;;;;;;0.99;95.26;101183.56;1709192;82;22265;-65
2021/01/03 10:45:01;;;;;;;44.45;22.22;;;;;;;1.03;95.39;101178.86;1716163;83;21570;-67
2021/01/03 10:47:30;;;;;;;44.15;21.70;;;;;;;1.03;94.92;101177.56;1720133;79;21178;-75
2021/01/03 10:49:58;;;;;;;45.78;21.52;;;;;;;1.05;94.89;101176.30;1793300;77;21198;-74
2021/01/03 10:52:25;;;;;;;40.08;21.10;;;;;;;1.00;94.71;101165.84;1776837;79;21182;-75
2021/01/03 10:54:53;;;;;;;40.63;20.85;;;;;;;0.98;94.58;101166.23;1804174;77;21545;-74
2021/01/03 10:57:20;;;;;;;52.93;26.75;;;;;;;1.02;94.75;101166.75;1798686;77;21159;-76
2021/01/03 10:59:51;;;;;;;46.87;25.13;;;;;;;1.01;94.53;101168.91;1770509;79;21202;-74
2021/01/03 11:02:19;;;;;;;48.30;25.10;;;;;;;1.02;94.66;101161.56;1728146;79;22178;-67
2021/01/03 11:04:47;;;;;;;66.65;31.57;;;;;;;1.02;94.65;101157.67;1696047;83;21198;-66
2021/01/03 11:07:15;;;;;;;52.53;26.20;;;;;;;1.05;94.49;101165.92;1667524;84;21405;-66
2021/01/03 11:09:43;;;;;;;34.33;19.20;;;;;;;1.07;94.56;101164.67;1702089;83;21184;-66
2021/01/03 11:12:13;;;;;;;39.73;19.55;;;;;;;1.03;94.12;101155.94;1751725;81;21160;-65
2021/01/03 11:14:42;;;;;;;45.85;22.70;;;;;;;0.97;94.13;101158.45;1720702;81;21179;-65
2021/01/03 11:17:12;;;;;;;34.95;18.15;;;;;;;0.92;94.31;101155.77;1708405;80;21675;-75
2021/01/03 11:19:40;;;;;;;41.88;22.22;;;;;;;0.94;94.19;101157.94;1721637;81;21218;-73
2021/01/03 11:22:11;;;;;;;38.53;19.85;;;;;;;0.86;94.20;101154.34;1727269;81;21158;-80
2021/01/03 11:24:43;;;;;;;37.63;19.57;;;;;;;0.82;94.33;101151.23;1724696;80;21642;-78
2021/01/03 11:27:15;;;;;;;38.58;20.45;;;;;;;0.83;94.59;101151.70;1710248;83;21160;-78
2021/01/03 11:29:44;;;;;;;40.28;22.85;;;;;;;0.85;94.79;101153.87;1712123;81;21197;-76
2021/01/03 11:32:16;;;;;;;35.20;17.30;;;;;;;0.93;94.83;101157.50;1705132;79;21600;-63
2021/01/03 11:34:44;;;;;;;30.05;16.57;;;;;;;0.95;94.50;101157.11;1704868;82;21202;-62
2021/01/03 11:37:29;;;;;;;40.17;21.37;;;;;;;0.97;94.21;101156.72;1829725;75;22286;-64
2021/01/03 11:39:57;;;;;;;44.40;22.90;;;;;;;0.92;94.13;101151.87;1815451;78;21125;-63
2021/01/03 11:42:35;;;;;;;31.52;16.42;;;;;;;0.92;94.15;101160.05;1795179;79;22270;-63
2021/01/03 11:45:13;;;;;;;31.20;17.73;;;;;;;0.93;94.17;101151.02;1777767;80;21168;-62
2021/01/03 11:47:41;;;;;;;26.33;13.35;;;;;;;0.96;94.08;101141.11;1741782;77;21171;-77
2021/01/03 11:50:16;;;;;;;36.58;21.75;;;;;;;0.94;93.86;101145.39;1705217;82;21156;-74
2021/01/03 11:52:44;;;;;;;32.10;16.93;;;;;;;0.93;94.02;101153.61;1712747;82;21174;-75